sensor_id;sensor_type;location;lat;lon;timestamp;P1;durP1;ratioP1;P2;durP2;ratioP2
21810;SDS011;11067;48.788;9.208;2024-03-08T00:00:15;26.48;;;15.93;;
21810;SDS011;11067;48.788;9.208;2024-03-08T00:02:43;24.85;;;16.02;;
21810;SDS011;11067;48.788;9.208;2024-03-08T00:05:10;23.40;;;15.38;;
21810;SDS011;11067;48.788;9.208;2024-03-08T00:07:39;25.63;;;15.63;;
21810;SDS011;11067;48.788;9.208;2024-03-08T00:10:08;25.23;;;16.07;;
21810;SDS011;11067;48.788;9.208;2024-03-08T00:12:36;26.75;;;15.73;;
21810;SDS011;11067;48.788;9.208;2024-03-08T00:15:02;25.87;;;15.90;;
21810;SDS011;11067;48.788;9.208;2024-03-08T00:17:28;22.75;;;15.00;;
21810;SDS011;11067;48.788;9.208;2024-03-08T00:19:54;26.70;;;15.63;;
21810;SDS011;11067;48.788;9.208;2024-03-08T00:22:19;25.03;;;16.20;;
21810;SDS011;11067;48.788;9.208;2024-03-08T00:24:45;28.77;;;16.50;;
21810;SDS011;11067;48.788;9.208;2024-03-08T00:27:10;27.87;;;16.20;;
21810;SDS011;11067;48.788;9.208;2024-03-08T00:29:36;25.73;;;16.10;;
21810;SDS011;11067;48.788;9.208;2024-03-08T00:32:04;27.33;;;16.30;;
21810;SDS011;11067;48.788;9.208;2024-03-08T00:34:29;25.45;;;16.20;;
21810;SDS011;11067;48.788;9.208;2024-03-08T00:36:56;26.33;;;15.77;;
21810;SDS011;11067;48.788;9.208;2024-03-08T00:39:34;25.75;;;15.70;;
21810;SDS011;11067;48.788;9.208;2024-03-08T00:41:59;25.95;;;16.10;;
21810;SDS011;11067;48.788;9.208;2024-03-08T00:44:25;27.80;;;17.23;;
21810;SDS011;11067;48.788;9.208;2024-03-08T00:46:50;26.27;;;16.25;;
21810;SDS011;11067;48.788;9.208;2024-03-08T00:49:16;24.80;;;15.88;;
21810;SDS011;11067;48.788;9.208;2024-03-08T00:51:42;26.15;;;16.40;;
21810;SDS011;11067;48.788;9.208;2024-03-08T00:54:08;27.43;;;16.77;;
21810;SDS011;11067;48.788;9.208;2024-03-08T00:56:34;27.87;;;16.43;;
21810;SDS011;11067;48.788;9.208;2024-03-08T00:59:00;24.73;;;16.13;;
21810;SDS011;11067;48.788;9.208;2024-03-08T01:01:27;24.00;;;15.43;;
21810;SDS011;11067;48.788;9.208;2024-03-08T01:03:53;23.58;;;15.88;;
21810;SDS011;11067;48.788;9.208;2024-03-08T01:06:18;27.53;;;16.53;;
21810;SDS011;11067;48.788;9.208;2024-03-08T01:08:44;28.02;;;15.32;;
21810;SDS011;11067;48.788;9.208;2024-03-08T01:11:10;27.27;;;15.88;;
21810;SDS011;11067;48.788;9.208;2024-03-08T01:13:37;26.10;;;14.73;;
21810;SDS011;11067;48.788;9.208;2024-03-08T01:16:03;26.50;;;15.93;;
21810;SDS011;11067;48.788;9.208;2024-03-08T01:18:29;28.57;;;16.40;;
21810;SDS011;11067;48.788;9.208;2024-03-08T01:20:55;26.83;;;15.77;;
21810;SDS011;11067;48.788;9.208;2024-03-08T01:23:20;25.60;;;15.87;;
21810;SDS011;11067;48.788;9.208;2024-03-08T01:25:46;24.77;;;15.33;;
21810;SDS011;11067;48.788;9.208;2024-03-08T01:28:12;25.88;;;15.48;;
21810;SDS011;11067;48.788;9.208;2024-03-08T01:30:37;26.42;;;16.40;;
21810;SDS011;11067;48.788;9.208;2024-03-08T01:33:03;28.42;;;16.13;;
21810;SDS011;11067;48.788;9.208;2024-03-08T01:35:29;27.40;;;15.57;;
21810;SDS011;11067;48.788;9.208;2024-03-08T01:37:55;24.63;;;15.70;;
21810;SDS011;11067;48.788;9.208;2024-03-08T01:40:21;24.97;;;15.53;;
21810;SDS011;11067;48.788;9.208;2024-03-08T01:42:47;27.02;;;16.15;;
21810;SDS011;11067;48.788;9.208;2024-03-08T01:45:13;23.98;;;14.95;;
21810;SDS011;11067;48.788;9.208;2024-03-08T01:47:38;24.20;;;15.55;;
21810;SDS011;11067;48.788;9.208;2024-03-08T01:50:04;27.25;;;16.02;;
21810;SDS011;11067;48.788;9.208;2024-03-08T01:52:34;24.88;;;15.43;;
21810;SDS011;11067;48.788;9.208;2024-03-08T01:55:01;26.60;;;16.60;;
21810;SDS011;11067;48.788;9.208;2024-03-08T01:57:28;27.33;;;15.82;;
21810;SDS011;11067;48.788;9.208;2024-03-08T01:59:58;24.45;;;14.75;;
21810;SDS011;11067;48.788;9.208;2024-03-08T02:02:28;28.87;;;16.03;;
21810;SDS011;11067;48.788;9.208;2024-03-08T02:04:56;28.02;;;14.95;;
21810;SDS011;11067;48.788;9.208;2024-03-08T02:07:22;27.37;;;16.87;;
21810;SDS011;11067;48.788;9.208;2024-03-08T02:09:48;25.97;;;15.33;;
21810;SDS011;11067;48.788;9.208;2024-03-08T02:12:13;28.90;;;15.98;;
21810;SDS011;11067;48.788;9.208;2024-03-08T02:14:39;25.67;;;15.43;;
21810;SDS011;11067;48.788;9.208;2024-03-08T02:17:05;28.67;;;16.75;;
21810;SDS011;11067;48.788;9.208;2024-03-08T02:19:30;28.00;;;17.30;;
21810;SDS011;11067;48.788;9.208;2024-03-08T02:21:57;26.30;;;15.98;;
21810;SDS011;11067;48.788;9.208;2024-03-08T02:24:24;30.60;;;16.98;;
21810;SDS011;11067;48.788;9.208;2024-03-08T02:26:50;25.45;;;16.35;;
21810;SDS011;11067;48.788;9.208;2024-03-08T02:29:16;25.63;;;15.73;;
21810;SDS011;11067;48.788;9.208;2024-03-08T02:31:42;28.27;;;16.40;;
21810;SDS011;11067;48.788;9.208;2024-03-08T02:34:07;29.23;;;16.43;;
21810;SDS011;11067;48.788;9.208;2024-03-08T02:36:34;26.83;;;16.67;;
21810;SDS011;11067;48.788;9.208;2024-03-08T02:39:01;24.73;;;16.23;;
21810;SDS011;11067;48.788;9.208;2024-03-08T02:41:27;28.07;;;16.23;;
21810;SDS011;11067;48.788;9.208;2024-03-08T02:43:53;27.10;;;16.30;;
21810;SDS011;11067;48.788;9.208;2024-03-08T02:46:20;26.83;;;16.13;;
21810;SDS011;11067;48.788;9.208;2024-03-08T02:48:45;25.30;;;15.93;;
21810;SDS011;11067;48.788;9.208;2024-03-08T02:51:11;30.55;;;16.60;;
21810;SDS011;11067;48.788;9.208;2024-03-08T02:53:38;26.88;;;16.25;;
21810;SDS011;11067;48.788;9.208;2024-03-08T02:56:04;26.08;;;16.33;;
21810;SDS011;11067;48.788;9.208;2024-03-08T02:58:33;28.67;;;16.00;;
21810;SDS011;11067;48.788;9.208;2024-03-08T03:00:58;28.03;;;16.80;;
21810;SDS011;11067;48.788;9.208;2024-03-08T03:03:24;26.70;;;15.65;;
21810;SDS011;11067;48.788;9.208;2024-03-08T03:06:10;26.98;;;15.75;;
21810;SDS011;11067;48.788;9.208;2024-03-08T03:08:36;27.10;;;15.97;;
21810;SDS011;11067;48.788;9.208;2024-03-08T03:11:03;24.60;;;15.75;;
21810;SDS011;11067;48.788;9.208;2024-03-08T03:13:29;27.57;;;16.10;;
21810;SDS011;11067;48.788;9.208;2024-03-08T03:15:54;26.73;;;15.70;;
21810;SDS011;11067;48.788;9.208;2024-03-08T03:18:22;25.40;;;15.55;;
21810;SDS011;11067;48.788;9.208;2024-03-08T03:20:48;29.38;;;16.33;;
21810;SDS011;11067;48.788;9.208;2024-03-08T03:23:14;26.20;;;15.30;;
21810;SDS011;11067;48.788;9.208;2024-03-08T03:25:45;27.47;;;16.47;;
21810;SDS011;11067;48.788;9.208;2024-03-08T03:28:11;26.73;;;15.98;;
21810;SDS011;11067;48.788;9.208;2024-03-08T03:30:39;25.63;;;16.23;;
21810;SDS011;11067;48.788;9.208;2024-03-08T03:33:05;26.73;;;15.00;;
21810;SDS011;11067;48.788;9.208;2024-03-08T03:35:34;25.35;;;15.18;;
21810;SDS011;11067;48.788;9.208;2024-03-08T03:38:01;23.23;;;14.25;;
21810;SDS011;11067;48.788;9.208;2024-03-08T03:40:36;24.85;;;15.00;;
21810;SDS011;11067;48.788;9.208;2024-03-08T03:43:02;28.15;;;15.75;;
21810;SDS011;11067;48.788;9.208;2024-03-08T03:45:28;26.03;;;14.77;;
21810;SDS011;11067;48.788;9.208;2024-03-08T03:47:54;23.47;;;14.40;;
21810;SDS011;11067;48.788;9.208;2024-03-08T03:50:20;24.67;;;14.13;;
21810;SDS011;11067;48.788;9.208;2024-03-08T03:52:46;24.45;;;14.65;;
21810;SDS011;11067;48.788;9.208;2024-03-08T03:55:13;27.13;;;16.00;;
21810;SDS011;11067;48.788;9.208;2024-03-08T03:57:39;25.88;;;14.48;;
21810;SDS011;11067;48.788;9.208;2024-03-08T04:00:05;25.70;;;15.13;;
21810;SDS011;11067;48.788;9.208;2024-03-08T04:02:34;25.20;;;14.57;;
21810;SDS011;11067;48.788;9.208;2024-03-08T04:05:04;27.88;;;16.00;;
21810;SDS011;11067;48.788;9.208;2024-03-08T04:07:33;22.75;;;14.52;;
21810;SDS011;11067;48.788;9.208;2024-03-08T04:09:59;26.27;;;14.93;;
21810;SDS011;11067;48.788;9.208;2024-03-08T04:12:26;27.83;;;15.45;;
21810;SDS011;11067;48.788;9.208;2024-03-08T04:14:51;22.38;;;14.07;;
21810;SDS011;11067;48.788;9.208;2024-03-08T04:17:18;24.77;;;14.27;;
21810;SDS011;11067;48.788;9.208;2024-03-08T04:19:43;26.67;;;15.23;;
21810;SDS011;11067;48.788;9.208;2024-03-08T04:22:09;23.30;;;14.02;;
21810;SDS011;11067;48.788;9.208;2024-03-08T04:24:34;23.67;;;13.95;;
21810;SDS011;11067;48.788;9.208;2024-03-08T04:27:00;26.87;;;15.83;;
21810;SDS011;11067;48.788;9.208;2024-03-08T04:29:26;22.40;;;14.07;;
21810;SDS011;11067;48.788;9.208;2024-03-08T04:31:52;24.73;;;14.60;;
21810;SDS011;11067;48.788;9.208;2024-03-08T04:34:19;28.25;;;14.98;;
21810;SDS011;11067;48.788;9.208;2024-03-08T04:36:46;24.85;;;14.70;;
21810;SDS011;11067;48.788;9.208;2024-03-08T04:39:15;26.45;;;15.02;;
21810;SDS011;11067;48.788;9.208;2024-03-08T04:41:41;25.77;;;15.88;;
21810;SDS011;11067;48.788;9.208;2024-03-08T04:44:08;27.38;;;15.48;;
21810;SDS011;11067;48.788;9.208;2024-03-08T04:46:35;27.15;;;15.93;;
21810;SDS011;11067;48.788;9.208;2024-03-08T04:49:00;25.53;;;15.20;;
21810;SDS011;11067;48.788;9.208;2024-03-08T04:51:26;24.40;;;15.38;;
21810;SDS011;11067;48.788;9.208;2024-03-08T04:53:51;26.00;;;15.77;;
21810;SDS011;11067;48.788;9.208;2024-03-08T04:56:17;27.02;;;15.50;;
21810;SDS011;11067;48.788;9.208;2024-03-08T04:58:44;28.27;;;15.07;;
21810;SDS011;11067;48.788;9.208;2024-03-08T05:01:11;26.05;;;14.77;;
21810;SDS011;11067;48.788;9.208;2024-03-08T05:03:37;25.70;;;15.35;;
21810;SDS011;11067;48.788;9.208;2024-03-08T05:06:03;27.07;;;15.87;;
21810;SDS011;11067;48.788;9.208;2024-03-08T05:08:29;26.93;;;16.83;;
21810;SDS011;11067;48.788;9.208;2024-03-08T05:10:54;28.07;;;16.50;;
21810;SDS011;11067;48.788;9.208;2024-03-08T05:13:20;28.17;;;16.83;;
21810;SDS011;11067;48.788;9.208;2024-03-08T05:15:49;26.65;;;16.27;;
21810;SDS011;11067;48.788;9.208;2024-03-08T05:18:17;25.63;;;15.07;;
21810;SDS011;11067;48.788;9.208;2024-03-08T05:20:43;24.37;;;15.53;;
21810;SDS011;11067;48.788;9.208;2024-03-08T05:23:08;28.60;;;16.03;;
21810;SDS011;11067;48.788;9.208;2024-03-08T05:25:34;27.17;;;15.40;;
21810;SDS011;11067;48.788;9.208;2024-03-08T05:28:01;30.25;;;16.00;;
21810;SDS011;11067;48.788;9.208;2024-03-08T05:30:26;28.93;;;16.37;;
21810;SDS011;11067;48.788;9.208;2024-03-08T05:32:52;32.40;;;15.60;;
21810;SDS011;11067;48.788;9.208;2024-03-08T05:35:17;26.17;;;15.40;;
21810;SDS011;11067;48.788;9.208;2024-03-08T05:37:43;27.85;;;15.73;;
21810;SDS011;11067;48.788;9.208;2024-03-08T05:40:08;24.77;;;15.82;;
21810;SDS011;11067;48.788;9.208;2024-03-08T05:42:37;27.75;;;15.95;;
21810;SDS011;11067;48.788;9.208;2024-03-08T05:45:06;27.13;;;16.27;;
21810;SDS011;11067;48.788;9.208;2024-03-08T05:47:32;29.10;;;16.90;;
21810;SDS011;11067;48.788;9.208;2024-03-08T05:49:58;29.38;;;16.98;;
21810;SDS011;11067;48.788;9.208;2024-03-08T05:52:24;28.60;;;16.60;;
21810;SDS011;11067;48.788;9.208;2024-03-08T05:54:51;26.85;;;16.00;;
21810;SDS011;11067;48.788;9.208;2024-03-08T05:57:16;31.80;;;17.27;;
21810;SDS011;11067;48.788;9.208;2024-03-08T05:59:42;29.08;;;16.58;;
21810;SDS011;11067;48.788;9.208;2024-03-08T06:02:08;29.15;;;16.98;;
21810;SDS011;11067;48.788;9.208;2024-03-08T06:04:33;30.77;;;17.07;;
21810;SDS011;11067;48.788;9.208;2024-03-08T06:06:59;28.48;;;16.85;;
21810;SDS011;11067;48.788;9.208;2024-03-08T06:09:25;28.03;;;17.03;;
21810;SDS011;11067;48.788;9.208;2024-03-08T06:11:53;26.80;;;15.93;;
21810;SDS011;11067;48.788;9.208;2024-03-08T06:14:19;29.02;;;16.63;;
21810;SDS011;11067;48.788;9.208;2024-03-08T06:16:45;29.92;;;16.98;;
21810;SDS011;11067;48.788;9.208;2024-03-08T06:19:12;29.48;;;17.40;;
21810;SDS011;11067;48.788;9.208;2024-03-08T06:21:38;29.88;;;17.63;;
21810;SDS011;11067;48.788;9.208;2024-03-08T06:24:04;30.33;;;17.58;;
21810;SDS011;11067;48.788;9.208;2024-03-08T06:26:30;34.00;;;17.13;;
21810;SDS011;11067;48.788;9.208;2024-03-08T06:28:56;29.73;;;16.83;;
21810;SDS011;11067;48.788;9.208;2024-03-08T06:31:22;27.92;;;17.30;;
21810;SDS011;11067;48.788;9.208;2024-03-08T06:33:48;28.33;;;16.67;;
21810;SDS011;11067;48.788;9.208;2024-03-08T06:36:19;27.75;;;17.65;;
21810;SDS011;11067;48.788;9.208;2024-03-08T06:38:46;28.37;;;17.43;;
21810;SDS011;11067;48.788;9.208;2024-03-08T06:41:15;31.30;;;17.73;;
21810;SDS011;11067;48.788;9.208;2024-03-08T06:43:44;27.88;;;17.48;;
21810;SDS011;11067;48.788;9.208;2024-03-08T06:46:11;29.70;;;17.83;;
21810;SDS011;11067;48.788;9.208;2024-03-08T06:48:38;25.38;;;16.25;;
21810;SDS011;11067;48.788;9.208;2024-03-08T06:51:04;29.25;;;16.98;;
21810;SDS011;11067;48.788;9.208;2024-03-08T06:53:30;28.98;;;17.13;;
21810;SDS011;11067;48.788;9.208;2024-03-08T06:55:56;28.38;;;17.55;;
21810;SDS011;11067;48.788;9.208;2024-03-08T06:58:22;31.00;;;16.77;;
21810;SDS011;11067;48.788;9.208;2024-03-08T07:00:48;29.97;;;17.17;;
21810;SDS011;11067;48.788;9.208;2024-03-08T07:03:17;27.37;;;16.57;;
21810;SDS011;11067;48.788;9.208;2024-03-08T07:05:43;27.20;;;16.15;;
21810;SDS011;11067;48.788;9.208;2024-03-08T07:08:08;33.22;;;17.33;;
21810;SDS011;11067;48.788;9.208;2024-03-08T07:10:34;28.08;;;16.42;;
21810;SDS011;11067;48.788;9.208;2024-03-08T07:13:00;28.67;;;16.63;;
21810;SDS011;11067;48.788;9.208;2024-03-08T07:15:29;27.30;;;16.30;;
21810;SDS011;11067;48.788;9.208;2024-03-08T07:17:54;24.90;;;15.40;;
21810;SDS011;11067;48.788;9.208;2024-03-08T07:20:20;25.90;;;15.70;;
21810;SDS011;11067;48.788;9.208;2024-03-08T07:22:46;24.55;;;15.98;;
21810;SDS011;11067;48.788;9.208;2024-03-08T07:25:12;25.67;;;16.00;;
21810;SDS011;11067;48.788;9.208;2024-03-08T07:27:46;26.45;;;15.85;;
21810;SDS011;11067;48.788;9.208;2024-03-08T07:30:19;25.23;;;15.40;;
21810;SDS011;11067;48.788;9.208;2024-03-08T07:33:08;28.05;;;16.30;;
21810;SDS011;11067;48.788;9.208;2024-03-08T07:35:36;26.13;;;15.55;;
21810;SDS011;11067;48.788;9.208;2024-03-08T07:38:08;26.45;;;15.40;;
21810;SDS011;11067;48.788;9.208;2024-03-08T07:40:35;23.98;;;14.18;;
21810;SDS011;11067;48.788;9.208;2024-03-08T07:43:01;22.67;;;14.02;;
21810;SDS011;11067;48.788;9.208;2024-03-08T07:45:27;22.75;;;13.77;;
21810;SDS011;11067;48.788;9.208;2024-03-08T07:47:53;25.13;;;14.93;;
21810;SDS011;11067;48.788;9.208;2024-03-08T07:50:18;24.67;;;14.43;;
21810;SDS011;11067;48.788;9.208;2024-03-08T07:52:44;25.52;;;14.90;;
21810;SDS011;11067;48.788;9.208;2024-03-08T07:55:10;25.25;;;15.00;;
21810;SDS011;11067;48.788;9.208;2024-03-08T07:57:35;25.70;;;14.75;;
21810;SDS011;11067;48.788;9.208;2024-03-08T08:00:03;25.92;;;14.45;;
21810;SDS011;11067;48.788;9.208;2024-03-08T08:02:32;22.47;;;14.10;;
21810;SDS011;11067;48.788;9.208;2024-03-08T08:04:58;24.67;;;14.60;;
21810;SDS011;11067;48.788;9.208;2024-03-08T08:07:24;27.38;;;14.40;;
21810;SDS011;11067;48.788;9.208;2024-03-08T08:09:49;24.02;;;14.52;;
21810;SDS011;11067;48.788;9.208;2024-03-08T08:12:15;23.77;;;13.93;;
21810;SDS011;11067;48.788;9.208;2024-03-08T08:14:41;25.17;;;14.93;;
21810;SDS011;11067;48.788;9.208;2024-03-08T08:17:06;23.02;;;14.30;;
21810;SDS011;11067;48.788;9.208;2024-03-08T08:19:33;21.80;;;13.75;;
21810;SDS011;11067;48.788;9.208;2024-03-08T08:22:00;24.05;;;14.70;;
21810;SDS011;11067;48.788;9.208;2024-03-08T08:24:28;25.05;;;13.70;;
21810;SDS011;11067;48.788;9.208;2024-03-08T08:26:54;22.80;;;14.35;;
21810;SDS011;11067;48.788;9.208;2024-03-08T08:29:20;20.77;;;13.43;;
21810;SDS011;11067;48.788;9.208;2024-03-08T08:31:47;24.27;;;14.80;;
21810;SDS011;11067;48.788;9.208;2024-03-08T08:34:14;24.40;;;14.45;;
21810;SDS011;11067;48.788;9.208;2024-03-08T08:36:42;23.27;;;13.93;;
21810;SDS011;11067;48.788;9.208;2024-03-08T08:39:07;23.20;;;14.20;;
21810;SDS011;11067;48.788;9.208;2024-03-08T08:41:38;24.17;;;14.10;;
21810;SDS011;11067;48.788;9.208;2024-03-08T08:44:06;21.05;;;12.82;;
21810;SDS011;11067;48.788;9.208;2024-03-08T08:46:41;25.63;;;14.98;;
21810;SDS011;11067;48.788;9.208;2024-03-08T08:49:13;22.87;;;14.53;;
21810;SDS011;11067;48.788;9.208;2024-03-08T08:51:48;24.13;;;14.18;;
21810;SDS011;11067;48.788;9.208;2024-03-08T08:54:17;23.92;;;13.75;;
21810;SDS011;11067;48.788;9.208;2024-03-08T08:56:42;26.73;;;15.05;;
21810;SDS011;11067;48.788;9.208;2024-03-08T08:59:09;19.38;;;12.43;;
21810;SDS011;11067;48.788;9.208;2024-03-08T09:01:38;22.80;;;13.73;;
21810;SDS011;11067;48.788;9.208;2024-03-08T09:04:04;23.30;;;13.82;;
21810;SDS011;11067;48.788;9.208;2024-03-08T09:06:30;21.97;;;13.87;;
21810;SDS011;11067;48.788;9.208;2024-03-08T09:08:56;20.73;;;13.53;;
21810;SDS011;11067;48.788;9.208;2024-03-08T09:11:21;21.57;;;12.70;;
21810;SDS011;11067;48.788;9.208;2024-03-08T09:13:47;22.13;;;13.02;;
21810;SDS011;11067;48.788;9.208;2024-03-08T09:16:14;23.33;;;13.77;;
21810;SDS011;11067;48.788;9.208;2024-03-08T09:18:39;22.43;;;13.60;;
21810;SDS011;11067;48.788;9.208;2024-03-08T09:21:06;23.07;;;13.37;;
21810;SDS011;11067;48.788;9.208;2024-03-08T09:23:34;20.50;;;13.30;;
21810;SDS011;11067;48.788;9.208;2024-03-08T09:26:00;23.20;;;13.60;;
21810;SDS011;11067;48.788;9.208;2024-03-08T09:28:28;21.42;;;12.95;;
21810;SDS011;11067;48.788;9.208;2024-03-08T09:30:53;22.27;;;13.52;;
21810;SDS011;11067;48.788;9.208;2024-03-08T09:33:20;24.63;;;14.75;;
21810;SDS011;11067;48.788;9.208;2024-03-08T09:35:46;22.93;;;12.93;;
21810;SDS011;11067;48.788;9.208;2024-03-08T09:38:13;22.35;;;13.55;;
21810;SDS011;11067;48.788;9.208;2024-03-08T09:40:42;23.05;;;13.80;;
21810;SDS011;11067;48.788;9.208;2024-03-08T09:43:08;23.48;;;14.25;;
21810;SDS011;11067;48.788;9.208;2024-03-08T09:45:37;24.50;;;13.73;;
21810;SDS011;11067;48.788;9.208;2024-03-08T09:48:10;22.73;;;13.13;;
21810;SDS011;11067;48.788;9.208;2024-03-08T09:50:40;21.65;;;13.80;;
21810;SDS011;11067;48.788;9.208;2024-03-08T09:53:08;20.53;;;13.60;;
21810;SDS011;11067;48.788;9.208;2024-03-08T09:55:36;22.23;;;13.60;;
21810;SDS011;11067;48.788;9.208;2024-03-08T09:58:05;23.13;;;13.53;;
21810;SDS011;11067;48.788;9.208;2024-03-08T10:00:50;20.52;;;12.85;;
21810;SDS011;11067;48.788;9.208;2024-03-08T10:03:15;21.07;;;13.50;;
21810;SDS011;11067;48.788;9.208;2024-03-08T10:05:41;19.40;;;12.50;;
21810;SDS011;11067;48.788;9.208;2024-03-08T10:08:08;21.85;;;12.73;;
21810;SDS011;11067;48.788;9.208;2024-03-08T10:10:34;20.00;;;12.25;;
21810;SDS011;11067;48.788;9.208;2024-03-08T10:13:00;22.23;;;12.75;;
21810;SDS011;11067;48.788;9.208;2024-03-08T10:15:29;22.40;;;12.25;;
21810;SDS011;11067;48.788;9.208;2024-03-08T10:17:57;21.97;;;13.17;;
21810;SDS011;11067;48.788;9.208;2024-03-08T10:20:22;20.73;;;13.27;;
21810;SDS011;11067;48.788;9.208;2024-03-08T10:22:48;20.57;;;12.60;;
21810;SDS011;11067;48.788;9.208;2024-03-08T10:25:14;19.13;;;12.00;;
21810;SDS011;11067;48.788;9.208;2024-03-08T10:27:40;21.30;;;13.47;;
21810;SDS011;11067;48.788;9.208;2024-03-08T10:30:13;21.17;;;13.00;;
21810;SDS011;11067;48.788;9.208;2024-03-08T10:32:40;20.33;;;12.35;;
21810;SDS011;11067;48.788;9.208;2024-03-08T10:35:09;20.13;;;12.20;;
21810;SDS011;11067;48.788;9.208;2024-03-08T10:37:46;20.23;;;12.48;;
21810;SDS011;11067;48.788;9.208;2024-03-08T10:40:23;20.33;;;12.50;;
21810;SDS011;11067;48.788;9.208;2024-03-08T10:42:53;20.58;;;13.13;;
21810;SDS011;11067;48.788;9.208;2024-03-08T10:50:59;18.05;;;12.30;;
21810;SDS011;11067;48.788;9.208;2024-03-08T10:53:27;20.25;;;12.32;;
21810;SDS011;11067;48.788;9.208;2024-03-08T10:55:54;20.63;;;12.63;;
21810;SDS011;11067;48.788;9.208;2024-03-08T10:58:22;21.65;;;12.75;;
21810;SDS011;11067;48.788;9.208;2024-03-08T11:00:51;19.88;;;12.25;;
21810;SDS011;11067;48.788;9.208;2024-03-08T11:06:05;22.55;;;12.82;;
21810;SDS011;11067;48.788;9.208;2024-03-08T11:08:35;20.85;;;12.20;;
21810;SDS011;11067;48.788;9.208;2024-03-08T11:11:01;21.65;;;13.15;;
21810;SDS011;11067;48.788;9.208;2024-03-08T11:13:33;20.75;;;12.18;;
21810;SDS011;11067;48.788;9.208;2024-03-08T11:16:09;21.05;;;12.52;;
21810;SDS011;11067;48.788;9.208;2024-03-08T11:18:35;21.58;;;12.80;;
21810;SDS011;11067;48.788;9.208;2024-03-08T11:21:03;21.15;;;12.65;;
21810;SDS011;11067;48.788;9.208;2024-03-08T11:23:32;21.30;;;11.95;;
21810;SDS011;11067;48.788;9.208;2024-03-08T11:25:58;21.63;;;12.60;;
21810;SDS011;11067;48.788;9.208;2024-03-08T11:28:24;22.20;;;13.02;;
21810;SDS011;11067;48.788;9.208;2024-03-08T11:33:29;19.55;;;12.43;;
21810;SDS011;11067;48.788;9.208;2024-03-08T11:36:29;19.80;;;12.18;;
21810;SDS011;11067;48.788;9.208;2024-03-08T11:38:49;21.17;;;12.63;;
21810;SDS011;11067;48.788;9.208;2024-03-08T11:41:18;20.23;;;12.43;;
21810;SDS011;11067;48.788;9.208;2024-03-08T11:43:45;20.45;;;12.57;;
21810;SDS011;11067;48.788;9.208;2024-03-08T11:46:11;22.73;;;13.60;;
21810;SDS011;11067;48.788;9.208;2024-03-08T11:48:39;21.15;;;12.82;;
21810;SDS011;11067;48.788;9.208;2024-03-08T11:51:07;21.50;;;13.45;;
21810;SDS011;11067;48.788;9.208;2024-03-08T11:53:36;19.48;;;12.52;;
21810;SDS011;11067;48.788;9.208;2024-03-08T11:56:12;22.83;;;13.53;;
21810;SDS011;11067;48.788;9.208;2024-03-08T11:58:39;23.75;;;13.48;;
21810;SDS011;11067;48.788;9.208;2024-03-08T12:01:06;22.02;;;13.07;;
21810;SDS011;11067;48.788;9.208;2024-03-08T12:03:32;21.83;;;13.27;;
21810;SDS011;11067;48.788;9.208;2024-03-08T12:05:59;20.70;;;13.20;;
21810;SDS011;11067;48.788;9.208;2024-03-08T12:08:25;19.75;;;12.40;;
21810;SDS011;11067;48.788;9.208;2024-03-08T12:10:53;19.58;;;12.70;;
21810;SDS011;11067;48.788;9.208;2024-03-08T12:13:24;21.52;;;13.63;;
21810;SDS011;11067;48.788;9.208;2024-03-08T12:15:54;25.45;;;13.98;;
21810;SDS011;11067;48.788;9.208;2024-03-08T12:18:24;24.03;;;13.70;;
21810;SDS011;11067;48.788;9.208;2024-03-08T12:21:08;22.80;;;13.77;;
21810;SDS011;11067;48.788;9.208;2024-03-08T12:23:39;22.27;;;13.50;;
21810;SDS011;11067;48.788;9.208;2024-03-08T12:26:14;22.83;;;13.60;;
21810;SDS011;11067;48.788;9.208;2024-03-08T12:28:42;23.80;;;13.87;;
21810;SDS011;11067;48.788;9.208;2024-03-08T12:31:13;22.77;;;13.88;;
21810;SDS011;11067;48.788;9.208;2024-03-08T12:33:51;24.48;;;14.45;;
21810;SDS011;11067;48.788;9.208;2024-03-08T12:36:18;21.93;;;13.47;;
21810;SDS011;11067;48.788;9.208;2024-03-08T12:38:46;22.27;;;14.18;;
21810;SDS011;11067;48.788;9.208;2024-03-08T12:41:15;22.65;;;13.73;;
21810;SDS011;11067;48.788;9.208;2024-03-08T12:43:42;24.98;;;14.20;;
21810;SDS011;11067;48.788;9.208;2024-03-08T12:46:13;23.88;;;14.10;;
21810;SDS011;11067;48.788;9.208;2024-03-08T12:48:39;23.33;;;13.85;;
21810;SDS011;11067;48.788;9.208;2024-03-08T12:51:08;21.77;;;13.45;;
21810;SDS011;11067;48.788;9.208;2024-03-08T12:53:34;21.83;;;13.02;;
21810;SDS011;11067;48.788;9.208;2024-03-08T12:56:00;23.17;;;13.68;;
21810;SDS011;11067;48.788;9.208;2024-03-08T12:58:25;22.98;;;14.27;;
21810;SDS011;11067;48.788;9.208;2024-03-08T13:00:51;22.38;;;13.75;;
21810;SDS011;11067;48.788;9.208;2024-03-08T13:03:17;25.50;;;13.80;;
21810;SDS011;11067;48.788;9.208;2024-03-08T13:05:42;26.60;;;14.30;;
21810;SDS011;11067;48.788;9.208;2024-03-08T13:08:08;25.70;;;14.17;;
21810;SDS011;11067;48.788;9.208;2024-03-08T13:10:41;23.50;;;13.45;;
21810;SDS011;11067;48.788;9.208;2024-03-08T13:13:08;22.52;;;14.30;;
21810;SDS011;11067;48.788;9.208;2024-03-08T13:15:34;23.73;;;13.70;;
21810;SDS011;11067;48.788;9.208;2024-03-08T13:18:01;25.35;;;14.05;;
21810;SDS011;11067;48.788;9.208;2024-03-08T13:20:27;23.70;;;14.30;;
21810;SDS011;11067;48.788;9.208;2024-03-08T13:22:53;25.08;;;14.75;;
21810;SDS011;11067;48.788;9.208;2024-03-08T13:25:19;25.00;;;13.98;;
21810;SDS011;11067;48.788;9.208;2024-03-08T13:27:45;21.80;;;13.13;;
21810;SDS011;11067;48.788;9.208;2024-03-08T13:30:11;24.23;;;14.15;;
21810;SDS011;11067;48.788;9.208;2024-03-08T13:32:41;25.27;;;13.75;;
21810;SDS011;11067;48.788;9.208;2024-03-08T13:35:12;23.37;;;14.40;;
21810;SDS011;11067;48.788;9.208;2024-03-08T13:37:39;25.52;;;14.52;;
21810;SDS011;11067;48.788;9.208;2024-03-08T13:40:07;23.58;;;13.38;;
21810;SDS011;11067;48.788;9.208;2024-03-08T13:42:38;26.02;;;14.43;;
21810;SDS011;11067;48.788;9.208;2024-03-08T13:45:08;21.95;;;13.95;;
21810;SDS011;11067;48.788;9.208;2024-03-08T13:47:37;23.10;;;14.05;;
21810;SDS011;11067;48.788;9.208;2024-03-08T13:50:10;23.75;;;13.73;;
21810;SDS011;11067;48.788;9.208;2024-03-08T13:52:37;25.15;;;14.02;;
21810;SDS011;11067;48.788;9.208;2024-03-08T13:55:03;25.08;;;14.98;;
21810;SDS011;11067;48.788;9.208;2024-03-08T13:57:30;23.30;;;13.30;;
21810;SDS011;11067;48.788;9.208;2024-03-08T13:59:57;32.50;;;18.30;;
21810;SDS011;11067;48.788;9.208;2024-03-08T14:02:23;21.27;;;13.15;;
21810;SDS011;11067;48.788;9.208;2024-03-08T14:04:53;24.00;;;13.67;;
21810;SDS011;11067;48.788;9.208;2024-03-08T14:07:19;21.73;;;13.10;;
21810;SDS011;11067;48.788;9.208;2024-03-08T14:09:45;21.88;;;13.30;;
21810;SDS011;11067;48.788;9.208;2024-03-08T14:12:11;22.67;;;13.13;;
21810;SDS011;11067;48.788;9.208;2024-03-08T14:14:36;19.13;;;12.53;;
21810;SDS011;11067;48.788;9.208;2024-03-08T14:17:02;23.25;;;13.38;;
21810;SDS011;11067;48.788;9.208;2024-03-08T14:19:28;20.77;;;13.05;;
21810;SDS011;11067;48.788;9.208;2024-03-08T14:21:55;21.10;;;12.55;;
21810;SDS011;11067;48.788;9.208;2024-03-08T14:24:21;22.40;;;12.65;;
21810;SDS011;11067;48.788;9.208;2024-03-08T14:26:48;22.25;;;13.20;;
21810;SDS011;11067;48.788;9.208;2024-03-08T14:29:14;21.23;;;12.23;;
21810;SDS011;11067;48.788;9.208;2024-03-08T14:31:40;24.02;;;13.60;;